createdAt,value
2022-11-05T00:02:08.751Z,7.65
2022-11-05T00:04:35.422Z,7.69
2022-11-05T00:07:12.977Z,7.70
2022-11-05T00:09:39.881Z,7.73
2022-11-05T00:12:12.411Z,7.75
2022-11-05T00:14:39.101Z,7.77
2022-11-05T00:17:05.543Z,7.79
2022-11-05T00:19:32.021Z,7.81
2022-11-05T00:21:58.602Z,7.81
2022-11-05T00:24:25.361Z,7.84
2022-11-05T00:26:51.799Z,7.84
2022-11-05T00:29:18.341Z,7.85
2022-11-05T00:31:45.152Z,7.85
2022-11-05T00:34:11.693Z,7.86
2022-11-05T00:36:38.256Z,7.86
2022-11-05T00:39:05.945Z,7.89
2022-11-05T00:41:32.464Z,7.87
2022-11-05T00:43:59.104Z,7.85
2022-11-05T00:46:25.584Z,7.82
2022-11-05T00:48:52.210Z,7.81
2022-11-05T00:51:18.719Z,7.77
2022-11-05T00:53:45.465Z,7.74
2022-11-05T00:56:12.173Z,7.70
2022-11-05T00:58:38.727Z,7.65
2022-11-05T01:01:06.423Z,7.60
2022-11-05T01:03:36.068Z,7.57
2022-11-05T01:06:08.874Z,7.54
2022-11-05T01:08:36.283Z,7.54
2022-11-05T01:11:09.877Z,7.52
2022-11-05T01:13:37.131Z,7.54
2022-11-05T01:16:09.411Z,7.52
2022-11-05T01:18:38.702Z,7.52
2022-11-05T01:21:14.684Z,7.53
2022-11-05T01:23:41.482Z,7.54
2022-11-05T01:26:08.045Z,7.55
2022-11-05T01:28:34.599Z,7.56
2022-11-05T01:31:01.258Z,7.57
2022-11-05T01:33:27.874Z,7.58
2022-11-05T01:35:54.432Z,7.59
2022-11-05T01:38:21.057Z,7.62
2022-11-05T01:40:47.605Z,7.63
2022-11-05T01:43:20.485Z,7.65
2022-11-05T01:45:52.794Z,7.65
2022-11-05T01:48:34.092Z,7.65
2022-11-05T01:51:11.497Z,7.64
2022-11-05T01:53:48.331Z,7.63
2022-11-05T01:56:26.020Z,7.64
2022-11-05T01:59:03.720Z,7.62
2022-11-05T02:01:30.613Z,7.60
2022-11-05T02:04:02.332Z,7.60
2022-11-05T02:06:32.553Z,7.60
2022-11-05T02:09:07.264Z,7.58
2022-11-05T02:11:33.899Z,7.58
2022-11-05T02:14:03.857Z,7.60
2022-11-05T02:16:55.040Z,7.59
2022-11-05T02:19:58.947Z,7.59
2022-11-05T02:23:04.569Z,7.61
2022-11-05T02:25:58.797Z,7.60
2022-11-05T02:28:44.267Z,7.66
2022-11-05T02:31:26.331Z,7.67
2022-11-05T02:34:05.186Z,7.71
2022-11-05T02:36:44.788Z,7.75
2022-11-05T02:39:20.023Z,7.79
2022-11-05T02:42:12.830Z,7.80
2022-11-05T02:45:04.432Z,7.83
2022-11-05T02:48:20.661Z,7.86
2022-11-05T02:51:11.949Z,7.89
2022-11-05T02:53:48.738Z,7.93
2022-11-05T02:56:24.004Z,7.94
2022-11-05T02:58:50.463Z,7.97
2022-11-05T03:01:17.129Z,7.99
2022-11-05T03:03:47.248Z,8.01
2022-11-05T03:06:40.768Z,8.02
2022-11-05T03:09:21.472Z,8.01
2022-11-05T03:11:58.040Z,8.04
2022-11-05T03:14:54.245Z,8.03
2022-11-05T03:17:20.730Z,8.05
2022-11-05T03:19:55.813Z,8.03
2022-11-05T03:22:29.983Z,8.04
2022-11-05T03:25:02.598Z,8.04
2022-11-05T03:27:37.824Z,8.05
2022-11-05T03:30:10.672Z,8.08
2022-11-05T03:32:42.181Z,8.08
2022-11-05T03:35:21.969Z,8.09
2022-11-05T03:37:52.754Z,8.11
2022-11-05T03:40:22.725Z,8.13
2022-11-05T03:42:54.181Z,8.16
2022-11-05T03:45:27.927Z,8.17
2022-11-05T03:47:58.814Z,8.20
2022-11-05T03:50:41.689Z,8.21
2022-11-05T03:53:22.335Z,8.23
2022-11-05T03:56:11.751Z,8.25
2022-11-05T03:58:43.717Z,8.28
2022-11-05T04:01:10.821Z,8.31
2022-11-05T04:03:37.265Z,8.31
2022-11-05T04:06:09.721Z,8.35
2022-11-05T04:08:36.489Z,8.36
2022-11-05T04:11:03.253Z,8.38
2022-11-05T04:13:29.723Z,8.39
2022-11-05T04:15:56.925Z,8.42
2022-11-05T04:18:23.446Z,8.43
2022-11-05T04:20:49.918Z,8.46
2022-11-05T04:23:16.405Z,8.45
2022-11-05T04:25:43.370Z,8.49
2022-11-05T04:28:09.820Z,8.50
2022-11-05T04:30:36.288Z,8.52
2022-11-05T04:33:10.451Z,8.53
2022-11-05T04:35:42.157Z,8.56
2022-11-05T04:38:14.190Z,8.56
2022-11-05T04:40:41.665Z,8.59
2022-11-05T04:43:14.632Z,8.63
2022-11-05T04:45:42.303Z,8.64
2022-11-05T04:48:08.803Z,8.67
2022-11-05T04:50:35.324Z,8.69
2022-11-05T04:53:02.387Z,8.71
2022-11-05T04:55:29.166Z,8.74
2022-11-05T04:57:55.794Z,8.75
2022-11-05T05:00:23.902Z,8.79
2022-11-05T05:02:50.457Z,8.79
2022-11-05T05:05:17.140Z,8.81
2022-11-05T05:07:43.660Z,8.83
2022-11-05T05:10:11.219Z,8.83
2022-11-05T05:12:37.694Z,8.84
2022-11-05T05:15:05.113Z,8.86
2022-11-05T05:17:31.655Z,8.87
2022-11-05T05:19:58.304Z,8.90
2022-11-05T05:22:24.937Z,8.92
2022-11-05T05:24:52.907Z,8.94
2022-11-05T05:27:20.320Z,8.94
2022-11-05T05:29:46.760Z,8.96
2022-11-05T05:32:13.300Z,8.98
2022-11-05T05:34:39.785Z,8.98
2022-11-05T05:37:07.006Z,9.01
2022-11-05T05:39:33.490Z,9.00
2022-11-05T05:42:00.007Z,8.99
2022-11-05T05:44:26.468Z,8.98
2022-11-05T05:46:54.438Z,8.97
2022-11-05T05:49:21.090Z,8.96
2022-11-05T05:51:50.307Z,8.96
2022-11-05T05:54:16.813Z,8.96
2022-11-05T05:56:46.372Z,8.97
2022-11-05T05:59:12.893Z,8.98
2022-11-05T06:01:39.636Z,8.98
2022-11-05T06:04:06.576Z,8.99
2022-11-05T06:06:33.191Z,9.00
2022-11-05T06:08:59.833Z,9.00
2022-11-05T06:11:26.557Z,9.01
2022-11-05T06:13:53.020Z,9.01
2022-11-05T06:16:19.672Z,9.03
2022-11-05T06:18:46.846Z,9.05
2022-11-05T06:21:16.052Z,9.05
2022-11-05T06:23:44.395Z,9.08
2022-11-05T06:26:16.227Z,9.07
2022-11-05T06:28:43.367Z,9.10
2022-11-05T06:31:11.561Z,9.11
2022-11-05T06:33:38.235Z,9.05
2022-11-05T06:36:06.423Z,9.13
2022-11-05T06:38:34.149Z,9.07
2022-11-05T06:41:04.581Z,9.14
2022-11-05T06:43:35.815Z,9.17
2022-11-05T06:46:02.542Z,9.18
2022-11-05T06:48:29.449Z,9.17
2022-11-05T06:50:56.038Z,9.20
2022-11-05T06:53:22.593Z,9.20
2022-11-05T06:55:49.082Z,9.23
2022-11-05T06:58:15.865Z,9.25
2022-11-05T07:00:42.432Z,9.28
2022-11-05T07:03:11.231Z,9.28
2022-11-05T07:05:42.283Z,9.30
2022-11-05T07:08:08.843Z,9.36
2022-11-05T07:10:35.272Z,9.39
2022-11-05T07:13:07.557Z,9.43
2022-11-05T07:15:34.933Z,9.47
2022-11-05T07:18:01.724Z,9.51
2022-11-05T07:20:33.525Z,9.54
2022-11-05T07:23:06.209Z,9.58
2022-11-05T07:25:33.848Z,9.62
2022-11-05T07:28:00.968Z,9.62
2022-11-05T07:30:27.535Z,9.67
2022-11-05T07:32:54.180Z,9.72
2022-11-05T07:35:20.761Z,9.76
2022-11-05T07:37:52.009Z,9.80
2022-11-05T07:40:19.350Z,9.85
2022-11-05T07:42:48.062Z,9.92
2022-11-05T07:45:14.615Z,9.94
2022-11-05T07:47:52.497Z,9.97
2022-11-05T07:50:20.920Z,10.04
2022-11-05T07:52:47.775Z,10.06
2022-11-05T07:55:14.789Z,10.10
2022-11-05T07:57:42.745Z,10.14
2022-11-05T08:00:15.343Z,10.17
2022-11-05T08:02:42.920Z,10.22
2022-11-05T08:05:10.032Z,10.25
2022-11-05T08:07:36.703Z,10.29
2022-11-05T08:10:03.388Z,10.34
2022-11-05T08:12:30.881Z,10.37
2022-11-05T08:14:57.466Z,10.39
2022-11-05T08:17:24.199Z,10.42
2022-11-05T08:19:50.702Z,10.45
2022-11-05T08:22:17.138Z,10.48
2022-11-05T08:24:43.670Z,10.53
2022-11-05T08:27:10.157Z,10.57
2022-11-05T08:29:36.650Z,10.57
2022-11-05T08:32:03.373Z,10.61
2022-11-05T08:34:29.833Z,10.64
2022-11-05T08:36:56.275Z,10.67
2022-11-05T08:39:22.872Z,10.69
2022-11-05T08:41:49.506Z,10.72
2022-11-05T08:44:16.062Z,10.75
2022-11-05T08:46:42.705Z,10.78
2022-11-05T08:49:09.412Z,10.80
2022-11-05T08:51:35.876Z,10.83
2022-11-05T08:54:02.439Z,10.86
2022-11-05T08:56:28.973Z,10.88
2022-11-05T08:58:55.549Z,10.89
2022-11-05T09:01:22.069Z,10.92
2022-11-05T09:03:52.238Z,10.96
2022-11-05T09:06:18.973Z,11.01
2022-11-05T09:08:45.658Z,11.05
2022-11-05T09:11:12.346Z,11.08
2022-11-05T09:13:38.854Z,11.11
2022-11-05T09:16:06.023Z,11.12
2022-11-05T09:18:33.461Z,11.14
2022-11-05T09:20:59.967Z,11.15
2022-11-05T09:23:26.585Z,11.17
2022-11-05T09:25:53.131Z,11.17
2022-11-05T09:28:21.134Z,11.18
2022-11-05T09:30:50.029Z,11.20
2022-11-05T09:33:22.836Z,11.23
2022-11-05T09:35:49.757Z,11.21
2022-11-05T09:38:16.497Z,11.22
2022-11-05T09:41:27.235Z,11.18
2022-11-05T09:43:57.920Z,11.20
2022-11-05T09:46:27.097Z,11.19
2022-11-05T09:48:58.969Z,11.18
2022-11-05T09:51:25.536Z,11.13
2022-11-05T09:53:52.362Z,11.13
2022-11-05T09:56:26.292Z,11.11
2022-11-05T09:59:15.816Z,11.10
2022-11-05T10:01:43.549Z,11.12
2022-11-05T10:04:16.909Z,11.12
2022-11-05T10:06:57.533Z,11.12
2022-11-05T10:09:33.526Z,11.11
2022-11-05T10:12:11.827Z,11.11
2022-11-05T10:14:49.502Z,11.07
2022-11-05T10:17:21.794Z,11.03
2022-11-05T10:19:54.337Z,11.00
2022-11-05T10:22:21.172Z,10.99
2022-11-05T10:24:49.977Z,10.98
2022-11-05T10:27:23.762Z,10.94
2022-11-05T10:29:50.911Z,10.95
2022-11-05T10:32:28.408Z,10.92
2022-11-05T10:34:59.620Z,10.92
2022-11-05T10:37:26.913Z,10.93
2022-11-05T10:39:54.078Z,10.94
2022-11-05T10:42:23.446Z,10.93
2022-11-05T10:45:09.625Z,10.93
2022-11-05T10:47:45.560Z,10.95
2022-11-05T10:50:20.609Z,10.98
2022-11-05T10:53:01.325Z,10.97
2022-11-05T10:55:29.326Z,10.98
2022-11-05T10:58:07.689Z,10.95
2022-11-05T11:00:34.414Z,10.95
2022-11-05T11:03:03.326Z,10.95
2022-11-05T11:05:30.968Z,10.94
2022-11-05T11:08:01.330Z,10.92
2022-11-05T11:10:30.519Z,10.91
2022-11-05T11:12:57.542Z,10.89
2022-11-05T11:15:30.214Z,10.87
2022-11-05T11:17:56.695Z,10.87
2022-11-05T11:20:28.511Z,10.88
2022-11-05T11:23:11.673Z,10.86
2022-11-05T11:25:41.284Z,10.90
2022-11-05T11:28:18.192Z,10.95
2022-11-05T11:31:10.700Z,10.95
2022-11-05T11:33:39.102Z,11.04
2022-11-05T11:36:06.452Z,11.13
2022-11-05T11:38:35.492Z,11.23
2022-11-05T11:41:32.301Z,11.34
2022-11-05T11:44:04.714Z,11.45
2022-11-05T11:46:33.837Z,11.55
2022-11-05T11:49:01.090Z,11.66
2022-11-05T11:51:36.608Z,11.74
2022-11-05T11:54:04.377Z,11.87
2022-11-05T11:56:43.502Z,11.93
2022-11-05T11:59:53.806Z,12.00
2022-11-05T12:02:17.079Z,12.05
2022-11-05T12:05:23.078Z,12.05
2022-11-05T12:07:55.510Z,12.07
2022-11-05T12:10:22.077Z,12.09
2022-11-05T12:13:20.445Z,12.04
2022-11-05T12:15:53.449Z,12.04
2022-11-05T12:18:38.817Z,12.01
2022-11-05T12:21:07.095Z,12.00
2022-11-05T12:23:51.272Z,11.96
2022-11-05T12:26:45.780Z,11.91
2022-11-05T12:29:35.690Z,11.86
2022-11-05T12:32:39.007Z,11.81
2022-11-05T12:35:20.420Z,11.78
2022-11-05T12:37:55.784Z,11.75
2022-11-05T12:40:46.486Z,11.75
2022-11-05T12:43:50.089Z,11.68
2022-11-05T12:46:35.126Z,11.55
2022-11-05T12:49:01.544Z,11.44
2022-11-05T12:51:58.305Z,11.28
2022-11-05T12:54:55.494Z,11.11
2022-11-05T12:57:23.365Z,10.97
2022-11-05T13:00:06.090Z,10.84
2022-11-05T13:03:05.060Z,10.73
2022-11-05T13:05:37.803Z,10.70
2022-11-05T13:08:28.602Z,10.62
2022-11-05T13:10:57.744Z,10.62
2022-11-05T13:13:46.461Z,10.58
2022-11-05T13:16:37.214Z,10.52
2022-11-05T13:19:22.383Z,10.51
2022-11-05T13:21:55.917Z,10.51
2022-11-05T13:24:34.622Z,10.53
2022-11-05T13:27:36.096Z,10.55
2022-11-05T13:30:05.254Z,10.57
2022-11-05T13:32:36.474Z,10.61
2022-11-05T13:35:05.790Z,10.66
2022-11-05T13:37:40.382Z,10.70
2022-11-05T13:40:11.185Z,10.78
2022-11-05T13:43:02.015Z,10.83
2022-11-05T13:45:46.944Z,10.89
2022-11-05T13:49:00.933Z,10.94
2022-11-05T13:51:42.704Z,11.00
2022-11-05T13:54:27.775Z,11.03
2022-11-05T13:57:22.364Z,11.04
2022-11-05T13:59:57.928Z,11.06
2022-11-05T14:02:29.269Z,11.06
2022-11-05T14:05:01.363Z,11.07
2022-11-05T14:07:32.339Z,11.06
2022-11-05T14:10:05.325Z,11.03
2022-11-05T14:12:39.869Z,11.00
2022-11-05T14:15:15.567Z,10.94
2022-11-05T14:18:04.973Z,10.90
2022-11-05T14:20:31.408Z,10.84
2022-11-05T14:23:22.586Z,10.78
2022-11-05T14:25:52.431Z,10.75
2022-11-05T14:28:39.393Z,10.72
2022-11-05T14:31:17.958Z,10.68
2022-11-05T14:34:18.993Z,10.66
2022-11-05T14:37:21.586Z,10.66
2022-11-05T14:39:48.719Z,10.70
2022-11-05T14:42:17.486Z,10.71
2022-11-05T14:45:20.002Z,10.73
2022-11-05T14:47:56.725Z,10.74
2022-11-05T14:50:42.563Z,10.74
2022-11-05T14:53:39.898Z,10.74
2022-11-05T14:56:17.952Z,10.77
2022-11-05T14:58:45.169Z,10.71
2022-11-05T15:01:14.559Z,10.80
2022-11-05T15:03:45.976Z,10.84
2022-11-05T15:06:35.149Z,10.84
2022-11-05T15:09:22.939Z,10.83
2022-11-05T15:12:18.070Z,10.84
2022-11-05T15:14:58.572Z,10.83
2022-11-05T15:17:28.916Z,10.83
2022-11-05T15:20:13.656Z,10.82
2022-11-05T15:22:47.258Z,10.80
2022-11-05T15:25:17.484Z,10.81
2022-11-05T15:28:01.352Z,10.76
2022-11-05T15:30:27.940Z,10.75
2022-11-05T15:32:54.634Z,10.73
2022-11-05T15:35:22.937Z,10.69
2022-11-05T15:37:55.921Z,10.65
2022-11-05T15:40:28.918Z,10.60
2022-11-05T15:43:15.749Z,10.54
2022-11-05T15:45:42.394Z,10.52
2022-11-05T15:48:14.225Z,10.47
2022-11-05T15:50:41.287Z,10.47
2022-11-05T15:53:44.049Z,10.44
2022-11-05T15:56:13.209Z,10.42
2022-11-05T15:58:52.540Z,10.42
2022-11-05T16:01:28.235Z,10.42
2022-11-05T16:03:58.100Z,10.44
2022-11-05T16:06:34.954Z,10.45
2022-11-05T16:09:01.953Z,10.47
2022-11-05T16:11:28.426Z,10.49
2022-11-05T16:14:14.257Z,10.50
2022-11-05T16:16:40.909Z,10.52
2022-11-05T16:19:40.532Z,10.49
2022-11-05T16:22:08.505Z,10.52
2022-11-05T16:24:35.086Z,10.51
2022-11-05T16:27:03.419Z,10.51
2022-11-05T16:29:33.488Z,10.50
2022-11-05T16:32:02.709Z,10.51
2022-11-05T16:34:35.018Z,10.48
2022-11-05T16:37:01.625Z,10.46
2022-11-05T16:39:28.123Z,10.46
2022-11-05T16:41:54.800Z,10.45
2022-11-05T16:44:21.298Z,10.44
2022-11-05T16:46:49.456Z,10.43
2022-11-05T16:49:16.785Z,10.40
2022-11-05T16:51:44.038Z,10.38
2022-11-05T16:54:10.816Z,10.38
2022-11-05T16:56:38.824Z,10.35
2022-11-05T16:59:05.273Z,10.33
2022-11-05T17:01:32.620Z,10.33
2022-11-05T17:03:59.343Z,10.32
2022-11-05T17:06:25.943Z,10.30
2022-11-05T17:08:52.381Z,10.31
2022-11-05T17:11:20.982Z,10.29
2022-11-05T17:13:48.104Z,10.30
2022-11-05T17:16:16.521Z,10.28
2022-11-05T17:18:43.921Z,10.29
2022-11-05T17:21:11.455Z,10.28
2022-11-05T17:23:38.308Z,10.25
2022-11-05T17:26:10.764Z,10.27
2022-11-05T17:28:38.701Z,10.26
2022-11-05T17:31:08.585Z,10.23
2022-11-05T17:33:35.237Z,10.24
2022-11-05T17:36:06.648Z,10.23
2022-11-05T17:38:33.365Z,10.24
2022-11-05T17:40:59.980Z,10.23
2022-11-05T17:43:26.574Z,10.24
2022-11-05T17:45:53.333Z,10.21
2022-11-05T17:48:20.722Z,10.21
2022-11-05T17:50:49.299Z,10.19
2022-11-05T17:53:18.327Z,10.16
2022-11-05T17:55:45.954Z,10.13
2022-11-05T17:58:13.007Z,10.12
2022-11-05T18:00:40.120Z,10.11
2022-11-05T18:03:06.824Z,10.10
2022-11-05T18:05:34.493Z,10.06
2022-11-05T18:08:01.311Z,9.97
2022-11-05T18:10:27.820Z,10.02
2022-11-05T18:12:54.361Z,10.04
2022-11-05T18:15:21.235Z,10.02
2022-11-05T18:17:47.883Z,10.01
2022-11-05T18:20:19.209Z,9.98
2022-11-05T18:22:48.551Z,9.97
2022-11-05T18:25:15.022Z,9.96
2022-11-05T18:27:41.696Z,9.95
2022-11-05T18:30:09.576Z,9.98
2022-11-05T18:32:36.404Z,9.97
2022-11-05T18:35:03.024Z,9.98
2022-11-05T18:37:29.607Z,9.99
2022-11-05T18:39:56.235Z,10.01
2022-11-05T18:42:23.049Z,10.01
2022-11-05T18:44:49.522Z,10.02
2022-11-05T18:47:16.259Z,10.04
2022-11-05T18:49:43.074Z,10.03
2022-11-05T18:52:09.791Z,10.05
2022-11-05T18:54:36.323Z,10.05
2022-11-05T18:57:03.142Z,10.05
2022-11-05T18:59:37.720Z,10.05
2022-11-05T19:02:06.344Z,10.04
2022-11-05T19:04:35.501Z,10.04
2022-11-05T19:07:05.080Z,10.04
2022-11-05T19:09:37.251Z,10.03
2022-11-05T19:12:05.420Z,10.03
2022-11-05T19:14:31.851Z,9.95
2022-11-05T19:16:59.332Z,10.01
2022-11-05T19:19:26.730Z,10.03
2022-11-05T19:21:53.292Z,10.02
2022-11-05T19:24:19.887Z,10.03
2022-11-05T19:26:46.689Z,10.02
2022-11-05T19:29:13.523Z,10.03
2022-11-05T19:31:39.952Z,10.04
2022-11-05T19:34:06.521Z,10.03
2022-11-05T19:36:33.773Z,10.03
2022-11-05T19:39:12.153Z,10.02
2022-11-05T19:41:38.710Z,10.03
2022-11-05T19:44:05.589Z,10.04
2022-11-05T19:46:32.865Z,10.05
2022-11-05T19:49:00.680Z,10.05
2022-11-05T19:51:29.753Z,10.04
2022-11-05T19:53:56.526Z,10.05
2022-11-05T19:56:28.147Z,10.04
2022-11-05T19:58:54.729Z,10.06
2022-11-05T20:01:23.009Z,10.04
2022-11-05T20:03:50.469Z,10.05
2022-11-05T20:06:19.592Z,10.03
2022-11-05T20:09:20.047Z,10.03
2022-11-05T20:11:35.217Z,10.03
2022-11-05T20:14:01.717Z,10.03
2022-11-05T20:16:30.721Z,10.04
2022-11-05T20:18:57.530Z,10.04
2022-11-05T20:21:24.356Z,10.04
2022-11-05T20:23:50.789Z,10.03
2022-11-05T20:26:17.333Z,10.05
2022-11-05T20:28:44.270Z,10.04
2022-11-05T20:31:13.317Z,10.04
2022-11-05T20:33:40.536Z,10.03
2022-11-05T20:36:10.488Z,10.04
2022-11-05T20:38:36.952Z,10.03
2022-11-05T20:41:11.956Z,10.02
2022-11-05T20:43:39.792Z,10.02
2022-11-05T20:46:07.368Z,10.01
2022-11-05T20:48:35.252Z,10.01
2022-11-05T20:51:12.635Z,10.00
2022-11-05T20:53:39.632Z,9.99
2022-11-05T20:56:08.066Z,9.99
2022-11-05T20:58:37.199Z,9.97
2022-11-05T21:01:05.192Z,9.94
2022-11-05T21:03:31.874Z,9.84
2022-11-05T21:05:58.527Z,9.88
2022-11-05T21:08:28.462Z,9.86
2022-11-05T21:10:55.952Z,9.85
2022-11-05T21:13:22.914Z,9.84
2022-11-05T21:15:51.990Z,9.83
2022-11-05T21:18:20.821Z,9.80
2022-11-05T21:20:47.810Z,9.79
2022-11-05T21:23:15.029Z,9.78
2022-11-05T21:25:42.991Z,9.78
2022-11-05T21:28:11.253Z,9.77
2022-11-05T21:30:40.464Z,9.77
2022-11-05T21:33:08.019Z,9.76
2022-11-05T21:35:38.872Z,9.75
2022-11-05T21:38:05.333Z,9.74
2022-11-05T21:40:31.938Z,9.75
2022-11-05T21:42:58.454Z,9.75
2022-11-05T21:45:24.933Z,9.75
2022-11-05T21:47:51.434Z,9.75
2022-11-05T21:50:21.760Z,9.75
2022-11-05T21:52:48.566Z,9.74
2022-11-05T21:55:15.401Z,9.74
2022-11-05T21:57:42.328Z,9.74
2022-11-05T22:00:11.587Z,9.74
2022-11-05T22:02:38.399Z,9.73
2022-11-05T22:05:06.174Z,9.73
2022-11-05T22:07:38.393Z,9.71
2022-11-05T22:10:14.690Z,9.72
2022-11-05T22:12:42.934Z,9.72
2022-11-05T22:15:09.947Z,9.71
2022-11-05T22:17:36.508Z,9.71
2022-11-05T22:20:04.425Z,9.72
2022-11-05T22:22:31.036Z,9.69
2022-11-05T22:24:57.477Z,9.68
2022-11-05T22:27:24.086Z,9.66
2022-11-05T22:29:50.689Z,9.62
2022-11-05T22:32:17.857Z,9.60
2022-11-05T22:34:44.426Z,9.55
2022-11-05T22:37:12.884Z,9.51
2022-11-05T22:39:39.483Z,9.47
2022-11-05T22:42:08.733Z,9.41
2022-11-05T22:44:36.141Z,9.35
2022-11-05T22:47:02.716Z,9.28
2022-11-05T22:49:29.269Z,9.23
2022-11-05T22:51:55.729Z,9.18
2022-11-05T22:54:22.258Z,9.13
2022-11-05T22:56:48.896Z,9.08
2022-11-05T22:59:15.694Z,9.05
2022-11-05T23:01:44.390Z,9.03
2022-11-05T23:04:11.783Z,8.99
2022-11-05T23:06:38.967Z,8.97
2022-11-05T23:09:12.153Z,8.95
2022-11-05T23:11:40.437Z,8.94
2022-11-05T23:14:09.726Z,8.92
2022-11-05T23:16:37.153Z,8.92
2022-11-05T23:19:03.624Z,8.90
2022-11-05T23:21:30.083Z,8.88
2022-11-05T23:23:56.595Z,8.87
2022-11-05T23:26:23.091Z,8.85
2022-11-05T23:28:49.574Z,8.84
2022-11-05T23:31:16.286Z,8.82
2022-11-05T23:33:42.853Z,8.82
2022-11-05T23:36:12.758Z,8.80
2022-11-05T23:38:39.480Z,8.80
2022-11-05T23:41:06.166Z,8.79
2022-11-05T23:43:32.729Z,8.77
2022-11-05T23:45:59.518Z,8.76
2022-11-05T23:48:37.498Z,8.74
2022-11-05T23:51:11.136Z,8.65
2022-11-05T23:53:40.305Z,8.68
2022-11-05T23:56:11.489Z,8.66
2022-11-05T23:58:39.665Z,8.63
